Time;durP1;ratioP1;P1;durP2;ratioP2;P2;SDS_P1;SDS_P2;PMS_P1;PMS_P2;Temp;Humidity;BMP_temperature;BMP_pressure;BME280_temperature;BME280_humidity;BME280_pressure;Samples;Min_cycle;Max_cycle;Signal;HPM_P1;HPM_P2
2023/09/26 00:01:30;;;;;;;3.17;1.10;;;21.70;87.10;;;;;;6184663;23;20020;-80
2023/09/26 00:03:56;;;;;;;2.40;1.52;;;21.70;87.30;;;;;;6185272;23;20011;-77
2023/09/26 00:06:23;;;;;;;3.78;1.20;;;21.80;87.10;;;;;;6184418;23;20033;-77
2023/09/26 00:08:49;;;;;;;2.63;0.85;;;21.80;87.00;;;;;;6185483;23;20012;-78
2023/09/26 00:11:16;;;;;;;0.88;0.70;;;21.80;86.80;;;;;;6186861;23;19997;-78
2023/09/26 00:13:43;;;;;;;3.38;1.13;;;21.80;86.70;;;;;;6187437;23;20012;-78
2023/09/26 00:16:10;;;;;;;1.77;0.88;;;21.80;86.60;;;;;;6186490;23;20001;-78
2023/09/26 00:18:35;;;;;;;2.55;1.27;;;21.80;86.70;;;;;;6187058;23;20051;-78
2023/09/26 00:21:01;;;;;;;2.53;1.15;;;21.70;86.70;;;;;;6185393;23;20017;-78
2023/09/26 00:23:27;;;;;;;3.25;1.10;;;21.70;86.90;;;;;;6187566;23;20080;-78
2023/09/26 00:25:53;;;;;;;1.85;1.02;;;21.70;86.90;;;;;;6186870;23;20524;-78
2023/09/26 00:28:18;;;;;;;3.13;1.17;;;21.60;87.10;;;;;;6186810;23;20005;-80
2023/09/26 00:30:44;;;;;;;3.58;1.10;;;21.60;87.10;;;;;;6186588;23;20004;-79
2023/09/26 00:33:10;;;;;;;2.30;1.33;;;21.60;87.30;;;;;;6186671;23;20572;-78
2023/09/26 00:35:36;;;;;;;4.32;1.00;;;21.60;87.30;;;;;;6186972;23;20085;-76
2023/09/26 00:38:02;;;;;;;2.35;1.10;;;21.60;87.20;;;;;;6186616;23;20024;-77
2023/09/26 00:40:28;;;;;;;2.17;1.13;;;21.60;87.30;;;;;;6187381;23;20067;-79
2023/09/26 00:42:53;;;;;;;2.92;0.98;;;21.60;87.50;;;;;;6187100;23;20061;-77
2023/09/26 00:45:20;;;;;;;2.53;1.30;;;21.60;87.50;;;;;;6186833;23;20001;-78
2023/09/26 00:47:47;;;;;;;1.42;0.95;;;21.60;87.40;;;;;;6185990;23;20331;-78
2023/09/26 00:50:13;;;;;;;4.15;0.85;;;21.70;87.30;;;;;;6184700;23;20005;-77
2023/09/26 00:52:49;;;;;;;1.80;0.90;;;21.70;87.00;;;;;;6186377;23;20001;-77
2023/09/26 00:55:21;;;;;;;3.53;1.00;;;21.70;86.70;;;;;;6186431;23;20000;-77
2023/09/26 00:57:47;;;;;;;2.95;1.10;;;21.70;86.60;;;;;;6186416;23;20024;-77
2023/09/26 01:00:16;;;;;;;5.97;1.58;;;21.70;86.60;;;;;;6186288;23;20056;-77
2023/09/26 01:02:43;;;;;;;2.85;1.60;;;21.70;86.60;;;;;;6186536;23;20422;-78
2023/09/26 01:05:09;;;;;;;1.80;0.93;;;21.80;86.40;;;;;;6186332;23;20044;-76
2023/09/26 01:07:35;;;;;;;2.00;0.93;;;21.70;86.20;;;;;;6186307;23;20008;-77
2023/09/26 01:10:03;;;;;;;4.78;1.45;;;21.70;86.10;;;;;;6186639;23;20005;-77
2023/09/26 01:12:29;;;;;;;3.78;1.00;;;21.70;86.20;;;;;;6185849;23;19997;-77
2023/09/26 01:14:55;;;;;;;3.17;1.10;;;21.70;86.10;;;;;;6186380;23;20072;-77
2023/09/26 01:17:21;;;;;;;2.13;1.42;;;21.70;86.00;;;;;;6185614;23;20028;-77
2023/09/26 01:19:47;;;;;;;1.45;0.90;;;21.70;85.90;;;;;;6186092;23;20001;-77
2023/09/26 01:22:16;;;;;;;1.10;0.98;;;21.70;85.90;;;;;;6186434;23;20009;-77
2023/09/26 01:24:43;;;;;;;1.80;0.93;;;21.70;85.80;;;;;;6186446;23;20335;-78
2023/09/26 01:27:09;;;;;;;1.40;0.93;;;21.70;85.90;;;;;;6186332;23;20008;-77
2023/09/26 01:29:35;;;;;;;4.13;1.45;;;21.70;85.90;;;;;;6186459;23;20419;-78
2023/09/26 01:32:01;;;;;;;2.95;1.40;;;21.60;85.90;;;;;;6185929;23;20016;-79
2023/09/26 01:34:27;;;;;;;3.03;1.20;;;21.50;86.70;;;;;;6186221;23;19997;-78
2023/09/26 01:36:53;;;;;;;2.03;0.90;;;21.40;86.50;;;;;;6186146;23;20359;-78
2023/09/26 01:39:20;;;;;;;3.58;1.52;;;21.30;86.60;;;;;;6186282;23;20005;-78
2023/09/26 01:41:46;;;;;;;2.42;0.95;;;21.30;86.90;;;;;;6186582;23;20447;-77
2023/09/26 01:44:12;;;;;;;3.85;1.25;;;21.20;86.80;;;;;;6185734;23;20435;-77
2023/09/26 01:46:37;;;;;;;2.30;0.80;;;21.20;87.20;;;;;;6186106;23;20001;-77
2023/09/26 01:49:03;;;;;;;1.35;1.00;;;21.20;87.20;;;;;;6185595;23;20005;-78
2023/09/26 01:51:29;;;;;;;2.25;1.10;;;21.10;87.40;;;;;;6186593;23;20055;-78
2023/09/26 01:53:55;;;;;;;2.75;1.38;;;21.00;87.80;;;;;;6185808;23;20424;-78
2023/09/26 01:56:21;;;;;;;3.20;1.85;;;21.00;87.60;;;;;;6185727;23;20011;-79
2023/09/26 01:58:47;;;;;;;1.55;1.00;;;20.90;88.20;;;;;;6186374;23;20009;-79
2023/09/26 02:01:13;;;;;;;8.40;1.50;;;20.90;87.90;;;;;;6185647;23;20001;-79
2023/09/26 02:03:41;;;;;;;2.42;0.95;;;20.90;88.10;;;;;;6186116;23;20016;-79
2023/09/26 02:06:06;;;;;;;6.18;1.23;;;20.90;88.00;;;;;;6184436;23;20005;-78
2023/09/26 02:08:32;;;;;;;2.05;1.10;;;20.90;88.20;;;;;;6185798;23;20005;-79
2023/09/26 02:10:58;;;;;;;2.28;1.20;;;20.90;87.90;;;;;;6185634;23;20064;-79
2023/09/26 02:13:25;;;;;;;1.75;1.05;;;20.90;87.80;;;;;;6185363;23;20001;-78
2023/09/26 02:15:50;;;;;;;0.93;0.70;;;21.00;87.80;;;;;;6185698;23;20329;-78
2023/09/26 02:18:16;;;;;;;1.98;1.17;;;21.10;87.70;;;;;;6185604;23;19997;-77
2023/09/26 02:20:42;;;;;;;1.35;0.95;;;21.10;87.70;;;;;;6185687;23;20502;-77
2023/09/26 02:23:07;;;;;;;4.70;1.20;;;21.10;87.70;;;;;;6185723;23;20005;-77
2023/09/26 02:25:33;;;;;;;2.80;1.45;;;21.10;87.60;;;;;;6183722;23;20633;-77
2023/09/26 02:27:59;;;;;;;2.30;1.10;;;21.10;87.60;;;;;;6186024;23;20073;-79
2023/09/26 02:30:27;;;;;;;1.73;0.77;;;21.00;87.60;;;;;;6185467;23;20005;-80
2023/09/26 02:32:52;;;;;;;4.25;0.98;;;21.00;87.70;;;;;;6185194;23;20052;-79
2023/09/26 02:35:21;;;;;;;1.88;1.20;;;21.00;87.80;;;;;;6184861;23;20001;-77
2023/09/26 02:37:48;;;;;;;2.53;1.10;;;21.00;87.90;;;;;;6185782;23;20434;-76
2023/09/26 02:40:14;;;;;;;2.08;1.00;;;20.90;87.90;;;;;;6185302;23;20055;-77
2023/09/26 02:42:43;;;;;;;3.97;1.13;;;20.90;88.00;;;;;;6185270;23;20016;-77
2023/09/26 02:45:09;;;;;;;1.40;0.90;;;20.80;88.00;;;;;;6184508;23;20001;-77
2023/09/26 02:47:35;;;;;;;3.20;1.25;;;20.80;88.20;;;;;;6185271;23;20393;-78
2023/09/26 02:50:01;;;;;;;2.72;1.10;;;20.80;88.40;;;;;;6185660;23;20001;-77
2023/09/26 02:52:27;;;;;;;1.30;0.75;;;20.80;88.40;;;;;;6185808;23;19997;-77
2023/09/26 02:54:53;;;;;;;1.90;1.00;;;20.70;88.40;;;;;;6185080;23;20001;-78
2023/09/26 02:57:19;;;;;;;4.20;1.45;;;20.70;88.50;;;;;;6185011;23;20001;-78
2023/09/26 02:59:45;;;;;;;2.88;1.00;;;20.70;88.40;;;;;;6185429;23;20001;-78
2023/09/26 03:02:11;;;;;;;1.98;1.00;;;20.80;88.40;;;;;;6185480;23;20309;-78
2023/09/26 03:04:36;;;;;;;1.70;1.10;;;20.80;88.40;;;;;;6184932;23;20008;-78
2023/09/26 03:07:02;;;;;;;5.45;1.30;;;20.80;88.30;;;;;;6185876;23;20008;-78
2023/09/26 03:09:28;;;;;;;3.08;1.13;;;20.80;88.30;;;;;;6185096;23;20083;-78
2023/09/26 03:11:54;;;;;;;2.83;1.10;;;20.80;88.30;;;;;;6185582;23;20527;-79
2023/09/26 03:14:20;;;;;;;3.05;1.17;;;20.90;88.20;;;;;;6184302;23;19997;-79
2023/09/26 03:16:46;;;;;;;1.80;1.10;;;20.80;88.20;;;;;;6185647;23;20036;-78
2023/09/26 03:19:12;;;;;;;1.95;0.90;;;20.80;88.10;;;;;;6184951;23;20428;-78
2023/09/26 03:21:38;;;;;;;2.83;0.82;;;20.80;88.20;;;;;;6184912;23;20024;-78
2023/09/26 03:24:04;;;;;;;2.25;0.93;;;20.80;88.40;;;;;;6184698;23;20005;-78
2023/09/26 03:26:30;;;;;;;1.42;1.00;;;20.70;88.30;;;;;;6185366;23;20063;-78
2023/09/26 03:28:55;;;;;;;1.98;1.30;;;20.70;88.10;;;;;;6185033;23;20285;-78
2023/09/26 03:31:23;;;;;;;3.05;0.85;;;20.80;88.20;;;;;;6184940;23;20008;-78
2023/09/26 03:33:52;;;;;;;2.50;1.08;;;20.70;88.00;;;;;;6183903;23;20096;-78
2023/09/26 03:36:18;;;;;;;4.25;1.23;;;20.70;88.10;;;;;;6185441;23;20004;-78
2023/09/26 03:38:43;;;;;;;1.30;0.77;;;20.60;88.20;;;;;;6185056;23;20005;-79
2023/09/26 03:41:09;;;;;;;3.38;1.35;;;20.60;88.30;;;;;;6185424;23;20027;-78
2023/09/26 03:43:35;;;;;;;2.40;0.93;;;20.60;88.40;;;;;;6184277;23;20009;-77
2023/09/26 03:46:05;;;;;;;2.83;1.23;;;20.60;88.40;;;;;;6185404;23;20442;-77
2023/09/26 03:48:32;;;;;;;1.10;1.00;;;20.60;88.50;;;;;;6184755;23;20005;-77
2023/09/26 03:51:27;;;;;;;1.20;0.95;;;20.60;88.60;;;;;;6185101;23;20412;-76
2023/09/26 03:53:52;;;;;;;1.77;1.10;;;20.60;88.60;;;;;;6159157;23;20031;-77
2023/09/26 03:56:18;;;;;;;3.05;1.00;;;20.60;88.80;;;;;;6184910;23;20460;-76
2023/09/26 03:58:44;;;;;;;1.17;0.93;;;20.50;88.90;;;;;;6184938;23;20005;-76
2023/09/26 04:01:11;;;;;;;2.53;1.15;;;20.50;89.00;;;;;;6184968;23;20412;-77
2023/09/26 04:03:38;;;;;;;4.13;1.25;;;20.50;89.10;;;;;;6183042;23;20009;-77
2023/09/26 04:06:04;;;;;;;5.30;1.38;;;20.50;89.20;;;;;;6185215;23;20070;-77
2023/09/26 04:08:30;;;;;;;5.50;1.30;;;20.40;89.20;;;;;;6183308;23;20040;-77
2023/09/26 04:10:56;;;;;;;1.98;1.05;;;20.50;89.40;;;;;;6184772;23;20072;-78
2023/09/26 04:13:22;;;;;;;2.03;1.02;;;20.50;89.30;;;;;;6183957;23;20001;-75
2023/09/26 04:15:47;;;;;;;1.95;1.30;;;20.50;89.20;;;;;;6185290;23;19997;-76
2023/09/26 04:18:13;;;;;;;3.53;1.50;;;20.50;89.20;;;;;;6184172;23;20076;-77
2023/09/26 04:20:39;;;;;;;1.55;1.05;;;20.50;89.40;;;;;;6185024;23;20083;-75
2023/09/26 04:23:05;;;;;;;1.27;1.10;;;20.40;89.20;;;;;;6184968;23;20400;-75
2023/09/26 04:25:33;;;;;;;2.00;1.20;;;20.40;89.20;;;;;;6185148;23;20077;-75
2023/09/26 04:27:59;;;;;;;1.90;0.98;;;20.40;89.20;;;;;;6184928;23;20024;-77
2023/09/26 04:30:25;;;;;;;2.58;1.20;;;20.40;89.10;;;;;;6184702;23;20434;-75
2023/09/26 04:32:50;;;;;;;5.65;0.90;;;20.40;89.20;;;;;;6184768;23;19999;-75
2023/09/26 04:35:16;;;;;;;1.98;1.15;;;20.40;89.20;;;;;;6184542;23;20028;-75
2023/09/26 04:37:42;;;;;;;3.60;1.23;;;20.40;89.40;;;;;;6184337;23;20051;-75
2023/09/26 04:40:11;;;;;;;1.50;0.98;;;20.40;89.20;;;;;;6184503;23;20075;-75
2023/09/26 04:42:49;;;;;;;2.58;1.20;;;20.40;89.10;;;;;;6184417;23;20092;-75
2023/09/26 04:45:15;;;;;;;1.95;1.20;;;20.50;89.10;;;;;;6184246;23;20005;-76
2023/09/26 04:47:41;;;;;;;2.85;1.55;;;20.50;89.30;;;;;;6184356;23;20409;-77
2023/09/26 04:50:08;;;;;;;1.75;1.02;;;20.50;89.10;;;;;;6184712;23;20005;-77
2023/09/26 04:52:34;;;;;;;3.97;1.33;;;20.50;88.90;;;;;;6184910;23;20004;-76
2023/09/26 04:55:00;;;;;;;1.00;0.90;;;20.50;88.90;;;;;;6185264;23;20013;-77
2023/09/26 04:57:26;;;;;;;4.60;1.30;;;20.40;88.90;;;;;;6186010;23;20424;-73
2023/09/26 04:59:51;;;;;;;2.70;1.30;;;20.50;88.90;;;;;;6186950;23;20099;-77
2023/09/26 05:02:17;;;;;;;2.03;1.08;;;20.40;88.70;;;;;;6186100;23;20076;-77
2023/09/26 05:04:45;;;;;;;5.60;1.85;;;20.40;88.80;;;;;;6186191;23;20329;-76
2023/09/26 05:07:11;;;;;;;5.30;1.65;;;20.40;88.80;;;;;;6186038;23;20009;-75
2023/09/26 05:09:37;;;;;;;1.65;1.20;;;20.40;89.00;;;;;;6186529;23;20285;-75
2023/09/26 05:12:03;;;;;;;1.92;1.17;;;20.40;89.20;;;;;;6185817;23;20001;-77
2023/09/26 05:14:29;;;;;;;2.35;1.10;;;20.30;89.20;;;;;;6185399;23;20012;-75
2023/09/26 05:16:55;;;;;;;6.00;1.70;;;20.30;89.30;;;;;;6183897;23;20334;-74
2023/09/26 05:19:20;;;;;;;6.18;2.10;;;20.30;89.50;;;;;;6185334;23;20008;-75
2023/09/26 05:21:46;;;;;;;3.63;1.25;;;20.30;89.50;;;;;;6185474;23;20017;-75
2023/09/26 05:24:12;;;;;;;2.85;1.50;;;20.30;89.40;;;;;;6184813;23;20286;-74
2023/09/26 05:26:37;;;;;;;3.30;1.48;;;20.30;89.50;;;;;;6185633;23;20062;-75
2023/09/26 05:29:03;;;;;;;2.55;1.67;;;20.30;89.50;;;;;;6184822;23;20080;-75
2023/09/26 05:31:30;;;;;;;5.80;1.70;;;20.30;89.50;;;;;;6185980;23;20048;-75
2023/09/26 05:33:56;;;;;;;3.78;1.40;;;20.20;89.40;;;;;;6184437;23;20017;-75
2023/09/26 05:36:23;;;;;;;6.80;1.75;;;20.30;89.40;;;;;;6186282;23;20004;-74
2023/09/26 05:38:48;;;;;;;3.55;1.60;;;20.20;89.30;;;;;;6185481;23;20008;-74
2023/09/26 05:41:14;;;;;;;3.65;1.70;;;20.20;89.30;;;;;;6184592;23;20440;-74
2023/09/26 05:43:40;;;;;;;8.90;1.90;;;20.20;89.30;;;;;;6185178;23;20001;-75
2023/09/26 05:46:06;;;;;;;3.65;1.67;;;20.30;89.40;;;;;;6185945;23;20012;-74
2023/09/26 05:48:32;;;;;;;1.88;1.23;;;20.30;89.10;;;;;;6186173;23;20654;-74
2023/09/26 05:51:05;;;;;;;3.35;1.25;;;20.30;89.00;;;;;;6185358;23;20001;-74
2023/09/26 05:53:31;;;;;;;2.53;1.30;;;20.30;88.90;;;;;;6186144;23;20004;-74
2023/09/26 05:55:56;;;;;;;5.43;1.70;;;20.30;88.80;;;;;;6185856;23;20379;-74
2023/09/26 05:58:22;;;;;;;4.68;1.92;;;20.40;88.60;;;;;;6184711;23;20068;-75
2023/09/26 06:00:49;;;;;;;2.85;1.33;;;20.40;88.60;;;;;;6184827;23;20071;-74
2023/09/26 06:03:15;;;;;;;3.88;1.20;;;20.40;88.40;;;;;;6184943;23;20100;-74
2023/09/26 06:05:42;;;;;;;3.40;1.52;;;20.40;88.20;;;;;;6185039;23;20440;-72
2023/09/26 06:08:08;;;;;;;11.38;2.33;;;20.50;88.10;;;;;;6185487;23;19997;-84
2023/09/26 06:10:33;;;;;;;2.42;1.60;;;20.50;87.90;;;;;;6185413;23;20011;-77
2023/09/26 06:12:59;;;;;;;3.60;1.20;;;20.50;88.30;;;;;;6185845;23;20059;-78
2023/09/26 06:15:25;;;;;;;2.22;1.17;;;20.60;88.40;;;;;;6185560;23;20001;-76
2023/09/26 06:18:00;;;;;;;3.22;1.20;;;20.70;87.80;;;;;;6186357;23;20058;-73
2023/09/26 06:20:29;;;;;;;4.72;1.27;;;20.80;87.90;;;;;;6185156;23;20018;-78
2023/09/26 06:22:56;;;;;;;3.78;1.42;;;20.80;87.70;;;;;;6183723;23;20074;-78
2023/09/26 06:25:22;;;;;;;1.15;0.98;;;20.80;87.60;;;;;;6185458;23;20009;-78
2023/09/26 06:27:49;;;;;;;2.10;1.40;;;20.90;87.60;;;;;;6185003;23;20076;-78
2023/09/26 06:30:15;;;;;;;2.85;1.48;;;20.90;87.10;;;;;;6185528;23;20088;-77
2023/09/26 06:32:41;;;;;;;3.17;1.73;;;21.00;87.10;;;;;;6185343;23;20005;-78
2023/09/26 06:35:07;;;;;;;4.00;1.40;;;21.00;87.90;;;;;;6186331;23;20001;-77
2023/09/26 06:37:33;;;;;;;2.67;1.30;;;21.00;86.90;;;;;;6185912;23;20109;-77
2023/09/26 06:40:04;;;;;;;3.47;1.23;;;21.10;86.70;;;;;;6186869;23;20025;-77
2023/09/26 06:42:32;;;;;;;7.43;1.60;;;21.10;86.60;;;;;;6187159;23;20009;-82
2023/09/26 06:44:58;;;;;;;3.80;1.27;;;21.10;86.50;;;;;;6186738;23;20012;-83
2023/09/26 06:47:27;;;;;;;2.67;1.20;;;21.10;86.30;;;;;;6186161;23;20072;-82
2023/09/26 06:49:54;;;;;;;3.72;1.60;;;21.20;86.40;;;;;;6184086;23;20079;-83
2023/09/26 06:52:22;;;;;;;2.60;1.50;;;21.20;86.40;;;;;;6184254;23;20004;-81
2023/09/26 06:54:49;;;;;;;4.63;1.55;;;21.20;86.30;;;;;;6186340;23;19997;-84
2023/09/26 06:57:18;;;;;;;5.18;1.80;;;21.30;86.40;;;;;;6186562;23;20007;-83
2023/09/26 06:59:49;;;;;;;3.08;1.38;;;21.40;86.30;;;;;;6186069;23;20001;-83
2023/09/26 07:02:15;;;;;;;5.32;1.67;;;21.40;86.00;;;;;;6185706;23;20009;-83
2023/09/26 07:04:41;;;;;;;3.88;1.30;;;21.50;86.40;;;;;;6185966;23;20356;-77
2023/09/26 07:07:06;;;;;;;5.22;1.63;;;21.60;85.40;;;;;;6186164;23;20008;-77
2023/09/26 07:09:32;;;;;;;4.57;1.45;;;21.60;85.70;;;;;;6186305;23;20001;-78
2023/09/26 07:11:58;;;;;;;6.40;1.90;;;21.70;84.80;;;;;;6184752;23;20005;-77
2023/09/26 07:14:24;;;;;;;3.08;2.00;;;21.60;84.80;;;;;;6185928;23;20451;-78
2023/09/26 07:16:51;;;;;;;3.00;1.50;;;21.60;84.20;;;;;;6185991;23;20005;-78
2023/09/26 07:19:17;;;;;;;6.32;1.80;;;21.60;84.50;;;;;;6183807;23;20001;-78
2023/09/26 07:21:42;;;;;;;10.93;1.63;;;21.70;84.40;;;;;;6185552;23;20012;-78
2023/09/26 07:24:09;;;;;;;3.83;1.50;;;21.80;84.30;;;;;;6185786;23;20060;-78
2023/09/26 07:26:35;;;;;;;4.25;1.55;;;21.80;84.30;;;;;;6185883;23;20424;-80
2023/09/26 07:29:01;;;;;;;2.17;1.35;;;21.90;84.10;;;;;;6183910;23;20012;-83
2023/09/26 07:31:27;;;;;;;1.90;1.30;;;22.00;84.20;;;;;;6185186;23;20007;-82
2023/09/26 07:33:52;;;;;;;4.68;1.80;;;22.00;84.10;;;;;;6184044;23;20001;-83
2023/09/26 07:36:18;;;;;;;2.05;1.38;;;22.10;84.00;;;;;;6183404;23;20012;-83
2023/09/26 07:38:44;;;;;;;6.68;1.90;;;22.10;84.00;;;;;;6184236;23;20071;-83
2023/09/26 07:41:14;;;;;;;3.67;1.83;;;22.30;83.80;;;;;;6182091;23;20028;-78
2023/09/26 07:43:40;;;;;;;1.80;1.35;;;22.30;83.70;;;;;;6179543;23;20009;-79
2023/09/26 07:46:09;;;;;;;6.50;1.67;;;22.50;83.40;;;;;;6182389;23;20005;-78
2023/09/26 07:48:35;;;;;;;2.33;1.30;;;22.60;83.20;;;;;;6182346;23;20005;-84
2023/09/26 07:51:02;;;;;;;2.22;1.20;;;22.70;83.50;;;;;;6184089;23;20001;-77
2023/09/26 07:53:28;;;;;;;2.10;1.27;;;22.80;83.30;;;;;;6183203;23;20001;-77
2023/09/26 07:55:56;;;;;;;2.35;1.33;;;22.90;83.20;;;;;;6183210;23;20001;-77
2023/09/26 07:58:23;;;;;;;2.25;1.10;;;23.00;82.40;;;;;;6185786;23;20360;-79
2023/09/26 08:00:48;;;;;;;4.78;1.90;;;23.10;82.20;;;;;;6186390;23;19997;-79
2023/09/26 08:03:14;;;;;;;3.88;2.03;;;23.10;81.50;;;;;;6184696;23;20055;-79
2023/09/26 08:05:40;;;;;;;3.05;1.48;;;23.20;82.70;;;;;;6185910;23;20284;-78
2023/09/26 08:08:06;;;;;;;1.77;1.00;;;23.30;81.50;;;;;;6183029;23;20056;-76
2023/09/26 08:10:37;;;;;;;2.50;1.40;;;23.50;81.80;;;;;;6179872;23;20033;-78
2023/09/26 08:13:04;;;;;;;3.25;1.90;;;23.60;81.10;;;;;;6183177;23;20024;-76
2023/09/26 08:15:31;;;;;;;8.73;2.08;;;23.60;80.00;;;;;;6185119;23;20374;-75
2023/09/26 08:17:58;;;;;;;5.75;1.88;;;23.80;80.80;;;;;;6183431;23;20099;-76
2023/09/26 08:20:24;;;;;;;1.42;1.23;;;23.90;79.50;;;;;;6184522;23;20035;-76
2023/09/26 08:22:50;;;;;;;5.15;2.08;;;24.00;79.60;;;;;;6184818;23;20411;-77
2023/09/26 08:25:16;;;;;;;4.07;1.83;;;24.10;78.20;;;;;;6183577;23;20009;-78
2023/09/26 08:27:41;;;;;;;2.42;2.13;;;24.20;79.10;;;;;;6182632;23;20009;-78
2023/09/26 08:30:11;;;;;;;2.13;1.45;;;24.40;79.20;;;;;;6185211;23;20005;-77
2023/09/26 08:32:37;;;;;;;3.67;1.75;;;24.50;77.20;;;;;;6185495;23;20054;-78
2023/09/26 08:35:05;;;;;;;1.83;1.13;;;24.60;77.00;;;;;;6186832;23;20007;-77
2023/09/26 08:37:33;;;;;;;3.53;1.60;;;24.70;77.30;;;;;;6185653;23;20051;-78
2023/09/26 08:40:09;;;;;;;2.92;1.70;;;24.80;77.80;;;;;;6183898;23;20041;-77
2023/09/26 08:42:36;;;;;;;2.03;1.55;;;24.90;76.90;;;;;;6185736;23;20304;-77
2023/09/26 08:45:03;;;;;;;2.75;1.70;;;25.10;76.40;;;;;;6187178;23;20001;-77
2023/09/26 08:47:29;;;;;;;4.05;1.90;;;25.20;76.20;;;;;;6185825;23;20033;-76
2023/09/26 08:49:56;;;;;;;3.72;1.70;;;25.30;75.90;;;;;;6185071;23;20004;-77
2023/09/26 08:52:23;;;;;;;4.18;2.13;;;25.40;76.00;;;;;;6185746;23;20001;-78
2023/09/26 08:54:49;;;;;;;2.80;2.10;;;25.60;75.00;;;;;;6186601;23;20001;-78
2023/09/26 08:57:17;;;;;;;3.25;1.73;;;25.70;74.90;;;;;;6186305;23;20021;-78
2023/09/26 08:59:46;;;;;;;3.45;1.63;;;25.80;73.90;;;;;;6186949;23;20001;-77
2023/09/26 09:02:12;;;;;;;4.50;1.67;;;25.90;74.10;;;;;;6186502;23;20076;-78
2023/09/26 09:04:43;;;;;;;6.10;1.70;;;26.10;74.10;;;;;;6185746;23;20136;-77
2023/09/26 09:07:10;;;;;;;8.05;2.50;;;26.20;73.60;;;;;;6183401;23;20005;-77
2023/09/26 09:09:36;;;;;;;2.75;2.13;;;26.30;70.20;;;;;;6184441;23;20013;-77
2023/09/26 09:12:02;;;;;;;3.00;1.88;;;26.40;73.00;;;;;;6187104;23;20269;-77
2023/09/26 09:14:35;;;;;;;7.80;2.65;;;26.50;72.60;;;;;;6186020;23;20474;-77
2023/09/26 09:17:01;;;;;;;6.80;2.22;;;26.60;70.40;;;;;;6185629;23;20001;-78
2023/09/26 09:19:46;;;;;;;4.97;1.90;;;26.60;68.40;;;;;;6185268;23;20080;-76
2023/09/26 09:22:17;;;;;;;6.65;2.38;;;26.60;70.10;;;;;;6182371;23;20364;-77
2023/09/26 09:24:43;;;;;;;3.70;1.83;;;26.60;69.00;;;;;;6185369;23;20001;-77
2023/09/26 09:27:09;;;;;;;5.13;1.80;;;26.60;69.80;;;;;;6185818;23;20009;-77
2023/09/26 09:29:40;;;;;;;6.43;1.95;;;26.70;70.20;;;;;;6186052;23;20089;-84
2023/09/26 09:32:05;;;;;;;2.13;1.73;;;26.80;70.50;;;;;;6186076;23;20005;-84
2023/09/26 09:34:31;;;;;;;3.65;1.92;;;27.00;70.70;;;;;;6186217;23;20415;-84
2023/09/26 09:36:57;;;;;;;4.15;2.10;;;27.20;70.50;;;;;;6187442;23;20122;-84
2023/09/26 09:39:23;;;;;;;3.90;2.30;;;27.40;68.80;;;;;;6186094;23;20005;-83
2023/09/26 09:41:49;;;;;;;7.80;3.00;;;27.50;69.20;;;;;;6185469;23;20408;-84
2023/09/26 09:44:16;;;;;;;6.47;2.13;;;27.60;68.20;;;;;;6187327;23;20001;-83
2023/09/26 09:46:43;;;;;;;12.05;2.10;;;27.70;68.90;;;;;;6187520;23;20050;-84
2023/09/26 09:49:12;;;;;;;3.38;2.05;;;27.70;68.10;;;;;;6186631;23;20137;-84
2023/09/26 09:51:42;;;;;;;4.18;2.10;;;27.70;68.80;;;;;;6186947;23;19997;-84
2023/09/26 09:54:17;;;;;;;2.90;1.73;;;27.90;68.80;;;;;;6187304;23;20008;-83
2023/09/26 09:56:46;;;;;;;3.65;2.03;;;28.00;68.60;;;;;;6185413;23;20497;-82
2023/09/26 09:59:15;;;;;;;2.55;1.70;;;28.20;68.20;;;;;;6186863;23;20001;-83
2023/09/26 10:01:45;;;;;;;7.55;2.55;;;28.30;68.70;;;;;;6186637;23;20357;-83
2023/09/26 10:04:13;;;;;;;3.72;2.08;;;28.40;67.50;;;;;;6187226;23;20001;-84
2023/09/26 10:06:41;;;;;;;3.05;1.80;;;28.40;67.70;;;;;;6186974;23;20012;-88
2023/09/26 10:09:07;;;;;;;3.28;2.03;;;28.50;67.90;;;;;;6186856;23;20331;-83
2023/09/26 10:11:35;;;;;;;6.53;2.65;;;28.70;67.90;;;;;;6187190;23;20004;-82
2023/09/26 10:14:05;;;;;;;3.05;1.80;;;28.80;66.30;;;;;;6186771;23;20023;-83
2023/09/26 10:16:31;;;;;;;5.63;2.20;;;28.90;67.70;;;;;;6187109;23;20363;-81
2023/09/26 10:19:00;;;;;;;4.25;2.35;;;29.00;66.80;;;;;;6186329;23;20071;-80
2023/09/26 10:21:31;;;;;;;4.35;1.75;;;29.00;66.00;;;;;;6185841;23;20091;-81
2023/09/26 10:24:05;;;;;;;4.45;2.33;;;29.10;66.70;;;;;;6186606;23;20382;-81
2023/09/26 10:26:36;;;;;;;4.22;1.73;;;29.20;66.10;;;;;;6186189;23;20024;-81
2023/09/26 10:29:06;;;;;;;3.00;1.90;;;29.30;66.40;;;;;;6186438;23;20036;-82
2023/09/26 10:31:34;;;;;;;2.13;1.75;;;29.40;66.20;;;;;;6186624;23;20004;-82
2023/09/26 10:34:01;;;;;;;9.43;2.25;;;29.50;66.10;;;;;;6186554;23;19997;-82
2023/09/26 10:36:28;;;;;;;2.50;1.65;;;29.60;66.40;;;;;;6186709;23;20001;-83
2023/09/26 10:39:05;;;;;;;7.95;1.90;;;29.80;66.00;;;;;;6186976;23;20024;-82
2023/09/26 10:41:32;;;;;;;3.20;2.03;;;30.00;66.20;;;;;;6186824;23;20001;-84
2023/09/26 10:43:58;;;;;;;8.07;1.80;;;30.20;65.60;;;;;;6186467;23;20016;-84
2023/09/26 10:46:24;;;;;;;4.60;1.90;;;30.30;64.70;;;;;;6185990;23;20005;-83
2023/09/26 10:48:49;;;;;;;3.65;2.17;;;30.20;63.50;;;;;;6186082;23;20471;-84
2023/09/26 10:51:17;;;;;;;3.17;1.60;;;30.20;64.10;;;;;;6186891;23;20057;-84
2023/09/26 10:53:47;;;;;;;5.20;2.00;;;30.30;64.80;;;;;;6185088;23;20000;-84
2023/09/26 10:56:13;;;;;;;4.93;1.90;;;30.40;64.50;;;;;;6186464;23;20020;-84
2023/09/26 10:58:44;;;;;;;4.43;2.00;;;30.50;64.40;;;;;;6186252;23;20012;-83
2023/09/26 11:01:11;;;;;;;3.05;2.00;;;30.70;63.90;;;;;;6184453;23;20028;-83
2023/09/26 11:03:37;;;;;;;4.75;2.03;;;30.80;63.50;;;;;;6186048;23;20024;-84
2023/09/26 11:06:04;;;;;;;3.42;2.20;;;30.90;63.60;;;;;;6186256;23;19997;-83
2023/09/26 11:08:30;;;;;;;5.20;1.98;;;31.00;63.40;;;;;;6186099;23;20100;-83
2023/09/26 11:10:57;;;;;;;3.47;1.95;;;31.20;63.20;;;;;;6186725;23;20095;-83
2023/09/26 11:13:24;;;;;;;3.05;1.58;;;31.40;62.90;;;;;;6186192;23;20081;-83
2023/09/26 11:15:53;;;;;;;5.90;2.30;;;31.60;62.70;;;;;;6186257;23;20043;-83
2023/09/26 11:18:19;;;;;;;4.90;2.08;;;31.70;62.50;;;;;;6186395;23;20005;-83
2023/09/26 11:20:45;;;;;;;3.00;2.33;;;31.80;62.50;;;;;;6186032;23;20040;-83
2023/09/26 11:23:10;;;;;;;3.85;1.98;;;31.90;62.30;;;;;;6186431;23;20036;-83
2023/09/26 11:25:40;;;;;;;6.28;2.03;;;32.10;61.50;;;;;;6187045;23;20001;-83
2023/09/26 11:28:06;;;;;;;4.88;2.35;;;32.30;60.70;;;;;;6186482;23;20059;-83
2023/09/26 11:30:32;;;;;;;5.47;2.58;;;32.40;60.40;;;;;;6185288;23;20442;-82
2023/09/26 11:32:58;;;;;;;5.18;2.63;;;32.60;60.70;;;;;;6185623;23;20001;-83
2023/09/26 11:35:25;;;;;;;4.32;2.08;;;32.70;60.40;;;;;;6183625;23;20394;-83
2023/09/26 11:37:53;;;;;;;4.20;2.10;;;32.90;60.30;;;;;;6185631;23;20001;-83
2023/09/26 11:40:26;;;;;;;3.55;1.95;;;33.00;59.50;;;;;;6185536;23;20008;-83
2023/09/26 11:42:55;;;;;;;6.30;2.20;;;33.10;59.70;;;;;;6185685;23;20012;-82
2023/09/26 11:45:23;;;;;;;4.40;2.33;;;33.20;59.80;;;;;;6185653;23;20509;-82
2023/09/26 11:47:52;;;;;;;4.65;2.13;;;33.50;59.40;;;;;;6185427;23;20001;-83
2023/09/26 11:50:18;;;;;;;7.05;2.40;;;33.60;58.80;;;;;;6185333;23;20005;-82
2023/09/26 11:52:44;;;;;;;3.42;2.33;;;33.80;57.80;;;;;;6184853;23;19997;-82
2023/09/26 11:55:16;;;;;;;3.42;1.83;;;34.00;57.80;;;;;;6184536;23;19997;-81
2023/09/26 11:57:42;;;;;;;5.68;2.47;;;34.10;58.40;;;;;;6184917;23;20004;-83
2023/09/26 12:00:11;;;;;;;5.82;1.85;;;34.10;56.30;;;;;;6185243;23;20005;-81
2023/09/26 12:02:38;;;;;;;;;;;34.10;57.20;;;;;;6185843;23;20005;-81
2023/09/26 12:05:07;;;;;;;4.38;2.35;;;34.10;55.20;;;;;;6185438;23;20223;-82
2023/09/26 12:07:33;;;;;;;4.65;2.15;;;34.10;55.90;;;;;;6182412;23;20009;-81
2023/09/26 12:09:59;;;;;;;3.60;1.90;;;34.10;56.70;;;;;;6180044;23;20009;-81
2023/09/26 12:12:24;;;;;;;8.63;2.22;;;34.30;56.60;;;;;;6182008;23;20012;-81
2023/09/26 12:15:12;;;;;;;6.18;2.38;;;34.50;56.30;;;;;;6182350;23;20001;-81
2023/09/26 12:17:38;;;;;;;4.00;2.05;;;34.60;56.40;;;;;;6181798;23;20503;-81
2023/09/26 12:20:07;;;;;;;6.35;2.80;;;34.70;56.10;;;;;;6179477;23;20025;-81
2023/09/26 12:22:33;;;;;;;3.03;2.05;;;34.70;55.90;;;;;;6182173;23;20015;-81
2023/09/26 12:24:58;;;;;;;6.65;2.30;;;34.70;55.50;;;;;;6182208;23;20009;-81
2023/09/26 12:27:24;;;;;;;5.55;2.17;;;34.70;54.60;;;;;;6182033;23;20059;-81
2023/09/26 12:29:50;;;;;;;5.72;2.22;;;34.70;53.80;;;;;;6182261;23;20766;-81
2023/09/26 12:32:16;;;;;;;5.15;2.13;;;34.70;54.90;;;;;;6181536;23;20439;-81
2023/09/26 12:34:42;;;;;;;4.22;2.45;;;34.80;54.30;;;;;;6181312;23;20005;-81
2023/09/26 12:37:08;;;;;;;5.18;2.08;;;34.80;54.20;;;;;;6181717;23;20005;-81
2023/09/26 12:39:34;;;;;;;4.00;2.13;;;34.80;54.30;;;;;;6181793;23;20024;-82
2023/09/26 12:42:00;;;;;;;5.45;1.90;;;34.80;54.30;;;;;;6182122;23;20316;-82
2023/09/26 12:44:25;;;;;;;4.35;2.28;;;34.80;54.20;;;;;;6179611;23;20335;-82
2023/09/26 12:46:51;;;;;;;5.50;1.88;;;34.80;53.80;;;;;;6182043;23;20009;-81